sensor_id;sensor_type;location;lat;lon;timestamp;P1;durP1;ratioP1;P2;durP2;ratioP2
19406;SDS011;9839;53.364;-1.204;2023-03-16T00:00:34;15.90;;;7.30;;
19406;SDS011;9839;53.364;-1.204;2023-03-16T00:03:00;15.50;;;7.73;;
19406;SDS011;9839;53.364;-1.204;2023-03-16T00:05:25;15.83;;;8.00;;
19406;SDS011;9839;53.364;-1.204;2023-03-16T00:07:50;15.87;;;7.20;;
19406;SDS011;9839;53.364;-1.204;2023-03-16T00:10:16;11.07;;;6.57;;
19406;SDS011;9839;53.364;-1.204;2023-03-16T00:12:41;15.00;;;7.50;;
19406;SDS011;9839;53.364;-1.204;2023-03-16T00:15:12;16.27;;;8.33;;
19406;SDS011;9839;53.364;-1.204;2023-03-16T00:17:38;14.57;;;8.03;;
19406;SDS011;9839;53.364;-1.204;2023-03-16T00:20:03;16.20;;;7.63;;
19406;SDS011;9839;53.364;-1.204;2023-03-16T00:22:31;14.17;;;7.63;;
19406;SDS011;9839;53.364;-1.204;2023-03-16T00:24:57;13.63;;;8.17;;
19406;SDS011;9839;53.364;-1.204;2023-03-16T00:27:23;14.97;;;8.10;;
19406;SDS011;9839;53.364;-1.204;2023-03-16T00:29:50;14.67;;;8.10;;
19406;SDS011;9839;53.364;-1.204;2023-03-16T00:32:29;13.77;;;7.33;;
19406;SDS011;9839;53.364;-1.204;2023-03-16T00:34:56;13.73;;;8.27;;
19406;SDS011;9839;53.364;-1.204;2023-03-16T00:37:23;14.20;;;7.70;;
19406;SDS011;9839;53.364;-1.204;2023-03-16T00:39:50;15.20;;;8.13;;
19406;SDS011;9839;53.364;-1.204;2023-03-16T00:42:16;12.90;;;7.97;;
19406;SDS011;9839;53.364;-1.204;2023-03-16T00:44:43;15.87;;;8.00;;
19406;SDS011;9839;53.364;-1.204;2023-03-16T00:47:09;14.17;;;8.33;;
19406;SDS011;9839;53.364;-1.204;2023-03-16T00:49:38;14.00;;;8.40;;
19406;SDS011;9839;53.364;-1.204;2023-03-16T00:52:06;15.53;;;8.40;;
19406;SDS011;9839;53.364;-1.204;2023-03-16T00:54:33;12.27;;;7.40;;
19406;SDS011;9839;53.364;-1.204;2023-03-16T00:56:58;13.37;;;7.80;;
19406;SDS011;9839;53.364;-1.204;2023-03-16T00:59:24;15.57;;;7.37;;
19406;SDS011;9839;53.364;-1.204;2023-03-16T01:01:51;11.03;;;7.13;;
19406;SDS011;9839;53.364;-1.204;2023-03-16T01:04:16;16.53;;;8.50;;
19406;SDS011;9839;53.364;-1.204;2023-03-16T01:06:43;14.63;;;7.80;;
19406;SDS011;9839;53.364;-1.204;2023-03-16T01:09:09;12.57;;;7.60;;
19406;SDS011;9839;53.364;-1.204;2023-03-16T01:11:35;12.57;;;7.47;;
19406;SDS011;9839;53.364;-1.204;2023-03-16T01:14:00;11.37;;;7.30;;
19406;SDS011;9839;53.364;-1.204;2023-03-16T01:16:26;13.03;;;7.93;;
19406;SDS011;9839;53.364;-1.204;2023-03-16T01:18:51;11.47;;;7.53;;
19406;SDS011;9839;53.364;-1.204;2023-03-16T01:21:17;12.13;;;7.10;;
19406;SDS011;9839;53.364;-1.204;2023-03-16T01:23:43;10.10;;;7.00;;
19406;SDS011;9839;53.364;-1.204;2023-03-16T01:26:09;11.87;;;7.60;;
19406;SDS011;9839;53.364;-1.204;2023-03-16T01:28:35;12.40;;;7.13;;
19406;SDS011;9839;53.364;-1.204;2023-03-16T01:31:02;12.87;;;7.00;;
19406;SDS011;9839;53.364;-1.204;2023-03-16T01:33:32;11.27;;;6.80;;
19406;SDS011;9839;53.364;-1.204;2023-03-16T01:35:59;9.10;;;6.23;;
19406;SDS011;9839;53.364;-1.204;2023-03-16T01:38:26;11.50;;;6.50;;
19406;SDS011;9839;53.364;-1.204;2023-03-16T01:40:52;9.97;;;6.80;;
19406;SDS011;9839;53.364;-1.204;2023-03-16T01:43:18;11.70;;;6.80;;
19406;SDS011;9839;53.364;-1.204;2023-03-16T01:45:54;11.20;;;6.63;;
19406;SDS011;9839;53.364;-1.204;2023-03-16T01:50:56;10.63;;;6.77;;
19406;SDS011;9839;53.364;-1.204;2023-03-16T01:53:22;13.73;;;7.47;;
19406;SDS011;9839;53.364;-1.204;2023-03-16T01:55:48;13.23;;;7.60;;
19406;SDS011;9839;53.364;-1.204;2023-03-16T01:58:15;11.10;;;6.30;;
19406;SDS011;9839;53.364;-1.204;2023-03-16T02:00:40;9.63;;;6.67;;
19406;SDS011;9839;53.364;-1.204;2023-03-16T02:03:13;12.73;;;7.43;;
19406;SDS011;9839;53.364;-1.204;2023-03-16T02:05:41;14.43;;;7.53;;
19406;SDS011;9839;53.364;-1.204;2023-03-16T02:08:10;12.20;;;7.23;;
19406;SDS011;9839;53.364;-1.204;2023-03-16T02:10:36;13.93;;;7.43;;
19406;SDS011;9839;53.364;-1.204;2023-03-16T02:13:03;13.03;;;7.70;;
19406;SDS011;9839;53.364;-1.204;2023-03-16T02:15:28;13.70;;;7.27;;
19406;SDS011;9839;53.364;-1.204;2023-03-16T02:17:54;11.30;;;7.23;;
19406;SDS011;9839;53.364;-1.204;2023-03-16T02:23:09;16.60;;;7.50;;
19406;SDS011;9839;53.364;-1.204;2023-03-16T02:28:18;14.30;;;7.40;;
19406;SDS011;9839;53.364;-1.204;2023-03-16T02:30:49;14.00;;;6.90;;
19406;SDS011;9839;53.364;-1.204;2023-03-16T02:33:15;12.63;;;6.70;;
19406;SDS011;9839;53.364;-1.204;2023-03-16T02:35:41;14.73;;;7.57;;
19406;SDS011;9839;53.364;-1.204;2023-03-16T02:38:06;13.37;;;7.60;;
19406;SDS011;9839;53.364;-1.204;2023-03-16T02:40:33;12.13;;;7.77;;
19406;SDS011;9839;53.364;-1.204;2023-03-16T02:43:04;12.03;;;6.87;;
19406;SDS011;9839;53.364;-1.204;2023-03-16T02:45:42;12.73;;;7.20;;
19406;SDS011;9839;53.364;-1.204;2023-03-16T02:48:29;11.67;;;7.00;;
19406;SDS011;9839;53.364;-1.204;2023-03-16T02:50:58;12.40;;;7.23;;
19406;SDS011;9839;53.364;-1.204;2023-03-16T02:53:23;9.93;;;6.03;;
19406;SDS011;9839;53.364;-1.204;2023-03-16T02:55:49;10.07;;;5.83;;
19406;SDS011;9839;53.364;-1.204;2023-03-16T02:58:14;11.83;;;6.30;;
19406;SDS011;9839;53.364;-1.204;2023-03-16T03:00:41;10.73;;;6.40;;
19406;SDS011;9839;53.364;-1.204;2023-03-16T03:03:07;9.67;;;6.20;;
19406;SDS011;9839;53.364;-1.204;2023-03-16T03:05:34;10.30;;;6.40;;
19406;SDS011;9839;53.364;-1.204;2023-03-16T03:08:00;11.80;;;5.80;;
19406;SDS011;9839;53.364;-1.204;2023-03-16T03:10:26;10.97;;;6.00;;
19406;SDS011;9839;53.364;-1.204;2023-03-16T03:12:51;10.93;;;5.90;;
19406;SDS011;9839;53.364;-1.204;2023-03-16T03:15:17;9.20;;;5.70;;
19406;SDS011;9839;53.364;-1.204;2023-03-16T03:17:43;9.97;;;5.87;;
19406;SDS011;9839;53.364;-1.204;2023-03-16T03:20:10;7.23;;;5.27;;
19406;SDS011;9839;53.364;-1.204;2023-03-16T03:22:44;12.97;;;6.53;;
19406;SDS011;9839;53.364;-1.204;2023-03-16T03:25:11;15.50;;;6.43;;
19406;SDS011;9839;53.364;-1.204;2023-03-16T03:27:38;11.57;;;6.87;;
19406;SDS011;9839;53.364;-1.204;2023-03-16T03:30:04;10.03;;;5.67;;
19406;SDS011;9839;53.364;-1.204;2023-03-16T03:32:30;9.77;;;5.97;;
19406;SDS011;9839;53.364;-1.204;2023-03-16T03:34:55;13.63;;;6.20;;
19406;SDS011;9839;53.364;-1.204;2023-03-16T03:37:21;9.93;;;5.83;;
19406;SDS011;9839;53.364;-1.204;2023-03-16T03:39:46;14.33;;;6.13;;
19406;SDS011;9839;53.364;-1.204;2023-03-16T03:42:12;9.97;;;5.47;;
19406;SDS011;9839;53.364;-1.204;2023-03-16T03:44:38;14.77;;;6.57;;
19406;SDS011;9839;53.364;-1.204;2023-03-16T03:47:03;10.90;;;5.47;;
19406;SDS011;9839;53.364;-1.204;2023-03-16T03:49:29;8.97;;;5.37;;
19406;SDS011;9839;53.364;-1.204;2023-03-16T03:51:55;9.43;;;5.13;;
19406;SDS011;9839;53.364;-1.204;2023-03-16T03:54:23;11.73;;;5.97;;
19406;SDS011;9839;53.364;-1.204;2023-03-16T03:56:49;10.30;;;5.37;;
19406;SDS011;9839;53.364;-1.204;2023-03-16T03:59:15;8.27;;;5.17;;
19406;SDS011;9839;53.364;-1.204;2023-03-16T04:01:41;11.07;;;5.20;;
19406;SDS011;9839;53.364;-1.204;2023-03-16T04:04:06;7.83;;;5.27;;
19406;SDS011;9839;53.364;-1.204;2023-03-16T04:06:31;10.30;;;4.40;;
19406;SDS011;9839;53.364;-1.204;2023-03-16T04:08:57;9.10;;;5.30;;
19406;SDS011;9839;53.364;-1.204;2023-03-16T04:11:22;8.77;;;5.00;;
19406;SDS011;9839;53.364;-1.204;2023-03-16T04:13:49;7.03;;;4.70;;
19406;SDS011;9839;53.364;-1.204;2023-03-16T04:16:16;8.87;;;5.33;;
19406;SDS011;9839;53.364;-1.204;2023-03-16T04:18:41;8.20;;;4.37;;
19406;SDS011;9839;53.364;-1.204;2023-03-16T04:21:07;9.10;;;4.97;;
19406;SDS011;9839;53.364;-1.204;2023-03-16T04:23:38;7.87;;;4.90;;
19406;SDS011;9839;53.364;-1.204;2023-03-16T04:26:03;8.17;;;4.87;;
19406;SDS011;9839;53.364;-1.204;2023-03-16T04:28:29;8.67;;;5.03;;
19406;SDS011;9839;53.364;-1.204;2023-03-16T04:31:00;11.30;;;5.40;;
19406;SDS011;9839;53.364;-1.204;2023-03-16T04:33:31;11.27;;;5.60;;
19406;SDS011;9839;53.364;-1.204;2023-03-16T04:35:57;10.00;;;5.27;;
19406;SDS011;9839;53.364;-1.204;2023-03-16T04:38:22;10.63;;;4.83;;
19406;SDS011;9839;53.364;-1.204;2023-03-16T04:40:48;9.33;;;5.40;;
19406;SDS011;9839;53.364;-1.204;2023-03-16T04:43:13;10.37;;;5.00;;
19406;SDS011;9839;53.364;-1.204;2023-03-16T04:45:39;11.77;;;5.50;;
19406;SDS011;9839;53.364;-1.204;2023-03-16T04:48:05;9.03;;;5.30;;
19406;SDS011;9839;53.364;-1.204;2023-03-16T04:50:30;9.53;;;5.73;;
19406;SDS011;9839;53.364;-1.204;2023-03-16T04:52:56;8.27;;;5.30;;
19406;SDS011;9839;53.364;-1.204;2023-03-16T04:55:21;9.13;;;5.10;;
19406;SDS011;9839;53.364;-1.204;2023-03-16T04:57:47;13.93;;;5.43;;
19406;SDS011;9839;53.364;-1.204;2023-03-16T05:00:12;7.67;;;4.90;;
19406;SDS011;9839;53.364;-1.204;2023-03-16T05:02:48;8.63;;;5.67;;
19406;SDS011;9839;53.364;-1.204;2023-03-16T05:05:14;10.63;;;5.67;;
19406;SDS011;9839;53.364;-1.204;2023-03-16T05:07:40;12.90;;;6.17;;
19406;SDS011;9839;53.364;-1.204;2023-03-16T05:10:07;13.80;;;5.70;;
19406;SDS011;9839;53.364;-1.204;2023-03-16T05:12:33;10.67;;;5.53;;
19406;SDS011;9839;53.364;-1.204;2023-03-16T05:14:59;11.83;;;5.40;;
19406;SDS011;9839;53.364;-1.204;2023-03-16T05:17:25;11.13;;;5.10;;
19406;SDS011;9839;53.364;-1.204;2023-03-16T05:19:50;9.40;;;5.23;;
19406;SDS011;9839;53.364;-1.204;2023-03-16T05:22:16;10.03;;;5.30;;
19406;SDS011;9839;53.364;-1.204;2023-03-16T05:24:41;12.00;;;5.07;;
19406;SDS011;9839;53.364;-1.204;2023-03-16T05:27:07;13.40;;;5.47;;
19406;SDS011;9839;53.364;-1.204;2023-03-16T05:29:32;12.40;;;5.90;;
19406;SDS011;9839;53.364;-1.204;2023-03-16T05:31:58;15.73;;;5.80;;
19406;SDS011;9839;53.364;-1.204;2023-03-16T05:34:24;15.37;;;5.83;;
19406;SDS011;9839;53.364;-1.204;2023-03-16T05:36:49;13.00;;;5.30;;
19406;SDS011;9839;53.364;-1.204;2023-03-16T05:39:15;12.03;;;6.63;;
19406;SDS011;9839;53.364;-1.204;2023-03-16T05:41:40;14.43;;;5.67;;
19406;SDS011;9839;53.364;-1.204;2023-03-16T05:44:06;16.60;;;5.47;;
19406;SDS011;9839;53.364;-1.204;2023-03-16T05:46:32;10.17;;;5.33;;
19406;SDS011;9839;53.364;-1.204;2023-03-16T05:48:58;14.17;;;6.10;;
19406;SDS011;9839;53.364;-1.204;2023-03-16T05:51:23;16.13;;;5.47;;
19406;SDS011;9839;53.364;-1.204;2023-03-16T05:53:50;14.97;;;5.47;;
19406;SDS011;9839;53.364;-1.204;2023-03-16T05:56:20;12.80;;;5.57;;
19406;SDS011;9839;53.364;-1.204;2023-03-16T05:58:50;11.20;;;5.23;;
19406;SDS011;9839;53.364;-1.204;2023-03-16T06:01:17;10.50;;;4.80;;
19406;SDS011;9839;53.364;-1.204;2023-03-16T06:03:44;13.77;;;4.33;;
19406;SDS011;9839;53.364;-1.204;2023-03-16T06:06:10;9.47;;;4.43;;
19406;SDS011;9839;53.364;-1.204;2023-03-16T06:08:36;15.37;;;4.77;;
19406;SDS011;9839;53.364;-1.204;2023-03-16T06:11:01;9.00;;;4.10;;
19406;SDS011;9839;53.364;-1.204;2023-03-16T06:13:28;13.20;;;4.50;;
19406;SDS011;9839;53.364;-1.204;2023-03-16T06:15:53;7.57;;;3.97;;
19406;SDS011;9839;53.364;-1.204;2023-03-16T06:18:19;12.30;;;3.60;;
19406;SDS011;9839;53.364;-1.204;2023-03-16T06:20:45;8.03;;;3.97;;
19406;SDS011;9839;53.364;-1.204;2023-03-16T06:23:11;9.20;;;3.67;;
19406;SDS011;9839;53.364;-1.204;2023-03-16T06:25:37;13.57;;;4.50;;
19406;SDS011;9839;53.364;-1.204;2023-03-16T06:28:03;12.10;;;3.27;;
19406;SDS011;9839;53.364;-1.204;2023-03-16T06:30:28;9.47;;;3.23;;
19406;SDS011;9839;53.364;-1.204;2023-03-16T06:32:54;8.30;;;3.30;;
19406;SDS011;9839;53.364;-1.204;2023-03-16T06:35:19;5.93;;;3.13;;
19406;SDS011;9839;53.364;-1.204;2023-03-16T06:37:45;9.57;;;3.50;;
19406;SDS011;9839;53.364;-1.204;2023-03-16T06:40:10;7.63;;;3.30;;
19406;SDS011;9839;53.364;-1.204;2023-03-16T06:42:37;11.63;;;3.30;;
19406;SDS011;9839;53.364;-1.204;2023-03-16T06:45:02;9.20;;;2.93;;
19406;SDS011;9839;53.364;-1.204;2023-03-16T06:47:28;14.17;;;2.60;;
19406;SDS011;9839;53.364;-1.204;2023-03-16T06:49:54;8.67;;;2.77;;
19406;SDS011;9839;53.364;-1.204;2023-03-16T06:52:19;5.53;;;2.70;;
19406;SDS011;9839;53.364;-1.204;2023-03-16T06:54:45;11.90;;;2.90;;
19406;SDS011;9839;53.364;-1.204;2023-03-16T06:57:11;7.17;;;2.37;;
19406;SDS011;9839;53.364;-1.204;2023-03-16T06:59:36;12.73;;;2.73;;
19406;SDS011;9839;53.364;-1.204;2023-03-16T07:02:01;9.40;;;2.60;;
19406;SDS011;9839;53.364;-1.204;2023-03-16T07:04:27;8.77;;;2.80;;
19406;SDS011;9839;53.364;-1.204;2023-03-16T07:06:52;9.50;;;2.23;;
19406;SDS011;9839;53.364;-1.204;2023-03-16T07:09:18;7.70;;;2.40;;
19406;SDS011;9839;53.364;-1.204;2023-03-16T07:11:43;12.37;;;2.67;;
19406;SDS011;9839;53.364;-1.204;2023-03-16T07:14:09;13.87;;;2.83;;
19406;SDS011;9839;53.364;-1.204;2023-03-16T07:16:36;10.20;;;2.83;;
19406;SDS011;9839;53.364;-1.204;2023-03-16T07:19:01;9.77;;;2.63;;
19406;SDS011;9839;53.364;-1.204;2023-03-16T07:21:27;11.87;;;2.40;;
19406;SDS011;9839;53.364;-1.204;2023-03-16T07:23:52;12.87;;;2.83;;
19406;SDS011;9839;53.364;-1.204;2023-03-16T07:26:19;6.57;;;2.60;;
19406;SDS011;9839;53.364;-1.204;2023-03-16T07:28:45;12.37;;;2.60;;
19406;SDS011;9839;53.364;-1.204;2023-03-16T07:31:10;12.63;;;2.73;;
19406;SDS011;9839;53.364;-1.204;2023-03-16T07:33:36;11.00;;;2.53;;
19406;SDS011;9839;53.364;-1.204;2023-03-16T07:36:02;5.47;;;2.43;;
19406;SDS011;9839;53.364;-1.204;2023-03-16T07:38:31;8.27;;;2.53;;
19406;SDS011;9839;53.364;-1.204;2023-03-16T07:41:00;7.00;;;2.87;;
19406;SDS011;9839;53.364;-1.204;2023-03-16T07:43:26;8.03;;;2.20;;
19406;SDS011;9839;53.364;-1.204;2023-03-16T07:45:53;8.83;;;2.37;;
19406;SDS011;9839;53.364;-1.204;2023-03-16T07:48:19;6.83;;;2.37;;
19406;SDS011;9839;53.364;-1.204;2023-03-16T07:50:48;6.70;;;2.20;;
19406;SDS011;9839;53.364;-1.204;2023-03-16T07:53:13;13.37;;;2.97;;
19406;SDS011;9839;53.364;-1.204;2023-03-16T07:55:42;14.80;;;2.83;;
19406;SDS011;9839;53.364;-1.204;2023-03-16T07:58:08;6.50;;;3.20;;
19406;SDS011;9839;53.364;-1.204;2023-03-16T08:00:35;6.93;;;2.50;;
19406;SDS011;9839;53.364;-1.204;2023-03-16T08:03:00;9.13;;;2.87;;
19406;SDS011;9839;53.364;-1.204;2023-03-16T08:05:26;13.50;;;2.30;;
19406;SDS011;9839;53.364;-1.204;2023-03-16T08:07:52;9.60;;;2.80;;
19406;SDS011;9839;53.364;-1.204;2023-03-16T08:10:17;5.23;;;2.33;;
19406;SDS011;9839;53.364;-1.204;2023-03-16T08:12:43;6.03;;;3.13;;
19406;SDS011;9839;53.364;-1.204;2023-03-16T08:15:09;8.53;;;2.53;;
19406;SDS011;9839;53.364;-1.204;2023-03-16T08:17:34;6.23;;;2.53;;
19406;SDS011;9839;53.364;-1.204;2023-03-16T08:20:01;8.67;;;2.73;;
19406;SDS011;9839;53.364;-1.204;2023-03-16T08:22:32;4.73;;;1.57;;
19406;SDS011;9839;53.364;-1.204;2023-03-16T08:24:57;9.67;;;2.70;;
19406;SDS011;9839;53.364;-1.204;2023-03-16T08:27:23;6.53;;;2.50;;
19406;SDS011;9839;53.364;-1.204;2023-03-16T08:29:52;4.33;;;2.37;;
19406;SDS011;9839;53.364;-1.204;2023-03-16T08:32:18;8.47;;;2.40;;
19406;SDS011;9839;53.364;-1.204;2023-03-16T08:34:43;6.40;;;2.70;;
19406;SDS011;9839;53.364;-1.204;2023-03-16T08:37:10;6.63;;;2.53;;
19406;SDS011;9839;53.364;-1.204;2023-03-16T08:39:38;4.50;;;2.00;;
19406;SDS011;9839;53.364;-1.204;2023-03-16T08:42:07;5.90;;;2.37;;
19406;SDS011;9839;53.364;-1.204;2023-03-16T08:44:39;7.27;;;2.93;;
19406;SDS011;9839;53.364;-1.204;2023-03-16T08:47:05;5.03;;;2.57;;
19406;SDS011;9839;53.364;-1.204;2023-03-16T08:49:30;8.60;;;2.63;;
19406;SDS011;9839;53.364;-1.204;2023-03-16T08:51:56;9.73;;;2.97;;
19406;SDS011;9839;53.364;-1.204;2023-03-16T08:54:21;9.47;;;2.70;;
19406;SDS011;9839;53.364;-1.204;2023-03-16T08:56:47;8.07;;;2.70;;
19406;SDS011;9839;53.364;-1.204;2023-03-16T08:59:13;4.80;;;2.20;;
19406;SDS011;9839;53.364;-1.204;2023-03-16T09:01:38;9.77;;;2.60;;
19406;SDS011;9839;53.364;-1.204;2023-03-16T09:04:04;5.00;;;2.00;;
19406;SDS011;9839;53.364;-1.204;2023-03-16T09:06:29;11.73;;;3.30;;
19406;SDS011;9839;53.364;-1.204;2023-03-16T09:08:55;8.10;;;2.60;;
19406;SDS011;9839;53.364;-1.204;2023-03-16T09:11:21;7.07;;;2.30;;
19406;SDS011;9839;53.364;-1.204;2023-03-16T09:13:47;10.27;;;2.47;;
19406;SDS011;9839;53.364;-1.204;2023-03-16T09:16:13;7.03;;;2.20;;
19406;SDS011;9839;53.364;-1.204;2023-03-16T09:18:40;4.93;;;2.10;;
19406;SDS011;9839;53.364;-1.204;2023-03-16T09:21:07;8.27;;;2.30;;
19406;SDS011;9839;53.364;-1.204;2023-03-16T09:23:34;12.30;;;2.63;;
19406;SDS011;9839;53.364;-1.204;2023-03-16T09:26:02;10.70;;;2.60;;
19406;SDS011;9839;53.364;-1.204;2023-03-16T09:28:29;5.90;;;2.20;;
19406;SDS011;9839;53.364;-1.204;2023-03-16T09:30:55;9.80;;;3.27;;
19406;SDS011;9839;53.364;-1.204;2023-03-16T09:33:25;8.57;;;2.47;;
19406;SDS011;9839;53.364;-1.204;2023-03-16T09:35:52;9.60;;;2.93;;
19406;SDS011;9839;53.364;-1.204;2023-03-16T09:38:21;10.40;;;2.50;;
19406;SDS011;9839;53.364;-1.204;2023-03-16T09:40:49;5.37;;;2.20;;
19406;SDS011;9839;53.364;-1.204;2023-03-16T09:48:51;9.17;;;2.60;;
19406;SDS011;9839;53.364;-1.204;2023-03-16T09:51:19;12.37;;;2.47;;
19406;SDS011;9839;53.364;-1.204;2023-03-16T09:54:00;7.70;;;2.37;;
19406;SDS011;9839;53.364;-1.204;2023-03-16T09:56:32;6.17;;;2.20;;
19406;SDS011;9839;53.364;-1.204;2023-03-16T09:59:00;7.80;;;2.20;;
19406;SDS011;9839;53.364;-1.204;2023-03-16T10:11:56;11.53;;;2.70;;
19406;SDS011;9839;53.364;-1.204;2023-03-16T10:14:44;6.53;;;2.40;;
19406;SDS011;9839;53.364;-1.204;2023-03-16T10:20:18;10.50;;;2.50;;
19406;SDS011;9839;53.364;-1.204;2023-03-16T10:22:46;12.63;;;2.20;;
19406;SDS011;9839;53.364;-1.204;2023-03-16T10:25:55;8.87;;;2.20;;
19406;SDS011;9839;53.364;-1.204;2023-03-16T10:28:04;10.40;;;1.97;;
19406;SDS011;9839;53.364;-1.204;2023-03-16T10:30:31;8.97;;;2.17;;
19406;SDS011;9839;53.364;-1.204;2023-03-16T10:33:40;7.47;;;1.87;;
19406;SDS011;9839;53.364;-1.204;2023-03-16T10:35:57;8.20;;;1.97;;
19406;SDS011;9839;53.364;-1.204;2023-03-16T10:41:13;9.00;;;2.23;;
19406;SDS011;9839;53.364;-1.204;2023-03-16T10:43:45;8.80;;;1.90;;
19406;SDS011;9839;53.364;-1.204;2023-03-16T10:46:19;10.87;;;2.10;;
19406;SDS011;9839;53.364;-1.204;2023-03-16T10:48:56;7.07;;;1.67;;
19406;SDS011;9839;53.364;-1.204;2023-03-16T10:51:32;8.43;;;1.47;;
19406;SDS011;9839;53.364;-1.204;2023-03-16T10:54:02;11.93;;;2.13;;
19406;SDS011;9839;53.364;-1.204;2023-03-16T10:56:31;6.47;;;1.80;;
19406;SDS011;9839;53.364;-1.204;2023-03-16T10:58:57;8.50;;;1.97;;
19406;SDS011;9839;53.364;-1.204;2023-03-16T11:01:24;7.43;;;1.70;;
19406;SDS011;9839;53.364;-1.204;2023-03-16T11:03:51;7.87;;;2.13;;
19406;SDS011;9839;53.364;-1.204;2023-03-16T11:06:21;6.27;;;1.70;;
19406;SDS011;9839;53.364;-1.204;2023-03-16T11:08:46;12.03;;;2.20;;
19406;SDS011;9839;53.364;-1.204;2023-03-16T11:11:13;6.70;;;1.63;;
19406;SDS011;9839;53.364;-1.204;2023-03-16T11:13:45;8.93;;;1.97;;
19406;SDS011;9839;53.364;-1.204;2023-03-16T11:21:50;11.40;;;2.27;;
19406;SDS011;9839;53.364;-1.204;2023-03-16T11:24:23;43.67;;;15.03;;
19406;SDS011;9839;53.364;-1.204;2023-03-16T11:26:54;18.33;;;4.90;;
19406;SDS011;9839;53.364;-1.204;2023-03-16T11:29:36;9.07;;;2.90;;
19406;SDS011;9839;53.364;-1.204;2023-03-16T11:32:17;9.73;;;1.73;;
19406;SDS011;9839;53.364;-1.204;2023-03-16T11:34:44;5.57;;;1.30;;
19406;SDS011;9839;53.364;-1.204;2023-03-16T11:39:43;7.97;;;1.73;;
19406;SDS011;9839;53.364;-1.204;2023-03-16T11:42:22;7.97;;;1.80;;
19406;SDS011;9839;53.364;-1.204;2023-03-16T11:45:00;15.60;;;2.10;;
19406;SDS011;9839;53.364;-1.204;2023-03-16T11:52:44;8.00;;;1.77;;
19406;SDS011;9839;53.364;-1.204;2023-03-16T11:56:32;9.20;;;1.90;;
19406;SDS011;9839;53.364;-1.204;2023-03-16T12:10:14;8.30;;;1.80;;
19406;SDS011;9839;53.364;-1.204;2023-03-16T12:13:00;7.77;;;3.00;;
19406;SDS011;9839;53.364;-1.204;2023-03-16T12:16:05;5.23;;;1.93;;
19406;SDS011;9839;53.364;-1.204;2023-03-16T12:18:42;7.90;;;2.43;;
19406;SDS011;9839;53.364;-1.204;2023-03-16T12:21:12;12.70;;;2.27;;
19406;SDS011;9839;53.364;-1.204;2023-03-16T12:23:41;9.43;;;2.60;;
19406;SDS011;9839;53.364;-1.204;2023-03-16T12:26:13;11.07;;;1.60;;
19406;SDS011;9839;53.364;-1.204;2023-03-16T12:28:39;4.23;;;1.40;;
19406;SDS011;9839;53.364;-1.204;2023-03-16T12:42:14;6.73;;;1.33;;
19406;SDS011;9839;53.364;-1.204;2023-03-16T12:44:47;3.57;;;1.20;;
19406;SDS011;9839;53.364;-1.204;2023-03-16T12:49:47;6.73;;;1.43;;
19406;SDS011;9839;53.364;-1.204;2023-03-16T12:52:14;8.27;;;1.77;;
19406;SDS011;9839;53.364;-1.204;2023-03-16T12:57:36;4.23;;;1.60;;
19406;SDS011;9839;53.364;-1.204;2023-03-16T13:00:03;5.33;;;1.87;;
19406;SDS011;9839;53.364;-1.204;2023-03-16T13:02:34;7.53;;;1.60;;
19406;SDS011;9839;53.364;-1.204;2023-03-16T13:07:28;8.17;;;1.83;;
19406;SDS011;9839;53.364;-1.204;2023-03-16T13:10:17;9.63;;;1.77;;
19406;SDS011;9839;53.364;-1.204;2023-03-16T13:12:41;6.60;;;1.70;;
19406;SDS011;9839;53.364;-1.204;2023-03-16T13:15:23;5.03;;;1.80;;
19406;SDS011;9839;53.364;-1.204;2023-03-16T13:18:37;4.37;;;1.20;;
19406;SDS011;9839;53.364;-1.204;2023-03-16T13:20:53;6.80;;;1.80;;
19406;SDS011;9839;53.364;-1.204;2023-03-16T13:26:17;6.03;;;1.90;;
19406;SDS011;9839;53.364;-1.204;2023-03-16T13:28:51;3.40;;;1.43;;
19406;SDS011;9839;53.364;-1.204;2023-03-16T13:31:35;8.20;;;1.83;;
19406;SDS011;9839;53.364;-1.204;2023-03-16T13:34:04;5.23;;;1.60;;
19406;SDS011;9839;53.364;-1.204;2023-03-16T13:36:30;4.90;;;1.60;;
19406;SDS011;9839;53.364;-1.204;2023-03-16T13:39:14;8.70;;;1.70;;
19406;SDS011;9839;53.364;-1.204;2023-03-16T13:41:52;11.13;;;1.83;;
19406;SDS011;9839;53.364;-1.204;2023-03-16T13:44:19;7.50;;;1.57;;
19406;SDS011;9839;53.364;-1.204;2023-03-16T13:46:47;7.47;;;1.47;;
19406;SDS011;9839;53.364;-1.204;2023-03-16T13:49:14;5.00;;;1.80;;
19406;SDS011;9839;53.364;-1.204;2023-03-16T13:51:40;5.80;;;1.67;;
19406;SDS011;9839;53.364;-1.204;2023-03-16T13:54:15;2.97;;;1.30;;
19406;SDS011;9839;53.364;-1.204;2023-03-16T13:56:45;6.90;;;1.50;;
19406;SDS011;9839;53.364;-1.204;2023-03-16T13:59:11;6.70;;;1.47;;
19406;SDS011;9839;53.364;-1.204;2023-03-16T14:01:37;6.83;;;1.70;;
19406;SDS011;9839;53.364;-1.204;2023-03-16T14:04:05;5.47;;;1.80;;
19406;SDS011;9839;53.364;-1.204;2023-03-16T14:06:37;7.47;;;1.53;;
19406;SDS011;9839;53.364;-1.204;2023-03-16T14:09:05;3.80;;;1.00;;
19406;SDS011;9839;53.364;-1.204;2023-03-16T14:11:38;8.40;;;1.50;;
19406;SDS011;9839;53.364;-1.204;2023-03-16T14:14:12;2.60;;;1.10;;
19406;SDS011;9839;53.364;-1.204;2023-03-16T14:16:38;6.10;;;1.10;;
19406;SDS011;9839;53.364;-1.204;2023-03-16T14:19:09;4.90;;;1.10;;
19406;SDS011;9839;53.364;-1.204;2023-03-16T14:21:52;6.83;;;1.33;;
19406;SDS011;9839;53.364;-1.204;2023-03-16T14:24:23;2.97;;;1.00;;
19406;SDS011;9839;53.364;-1.204;2023-03-16T14:26:53;4.93;;;1.37;;
19406;SDS011;9839;53.364;-1.204;2023-03-16T14:29:26;2.70;;;1.00;;
19406;SDS011;9839;53.364;-1.204;2023-03-16T14:31:54;4.93;;;1.30;;
19406;SDS011;9839;53.364;-1.204;2023-03-16T14:34:27;2.97;;;1.23;;
19406;SDS011;9839;53.364;-1.204;2023-03-16T14:37:03;1.80;;;0.93;;
19406;SDS011;9839;53.364;-1.204;2023-03-16T14:39:39;3.30;;;1.27;;
19406;SDS011;9839;53.364;-1.204;2023-03-16T14:42:18;4.50;;;1.20;;
19406;SDS011;9839;53.364;-1.204;2023-03-16T14:44:46;8.33;;;1.97;;
19406;SDS011;9839;53.364;-1.204;2023-03-16T14:47:20;4.80;;;1.00;;
19406;SDS011;9839;53.364;-1.204;2023-03-16T14:49:47;5.30;;;1.10;;
19406;SDS011;9839;53.364;-1.204;2023-03-16T14:54:41;4.63;;;1.20;;
19406;SDS011;9839;53.364;-1.204;2023-03-16T14:57:11;10.60;;;1.60;;
19406;SDS011;9839;53.364;-1.204;2023-03-16T14:59:40;4.50;;;1.20;;
19406;SDS011;9839;53.364;-1.204;2023-03-16T15:02:12;2.67;;;1.00;;
19406;SDS011;9839;53.364;-1.204;2023-03-16T15:04:41;7.80;;;1.17;;
19406;SDS011;9839;53.364;-1.204;2023-03-16T15:07:16;3.80;;;1.03;;
19406;SDS011;9839;53.364;-1.204;2023-03-16T15:09:50;6.67;;;1.40;;
19406;SDS011;9839;53.364;-1.204;2023-03-16T15:12:18;4.87;;;1.37;;
19406;SDS011;9839;53.364;-1.204;2023-03-16T15:14:44;6.97;;;1.23;;
19406;SDS011;9839;53.364;-1.204;2023-03-16T15:17:29;6.03;;;1.43;;
19406;SDS011;9839;53.364;-1.204;2023-03-16T15:19:55;6.83;;;1.60;;
19406;SDS011;9839;53.364;-1.204;2023-03-16T15:22:28;7.47;;;1.50;;
19406;SDS011;9839;53.364;-1.204;2023-03-16T15:25:16;4.40;;;1.53;;
19406;SDS011;9839;53.364;-1.204;2023-03-16T15:27:44;6.03;;;1.90;;
19406;SDS011;9839;53.364;-1.204;2023-03-16T15:30:15;4.97;;;2.73;;
19406;SDS011;9839;53.364;-1.204;2023-03-16T15:32:43;6.67;;;1.43;;
19406;SDS011;9839;53.364;-1.204;2023-03-16T15:35:08;8.97;;;1.87;;
19406;SDS011;9839;53.364;-1.204;2023-03-16T15:37:34;8.80;;;1.60;;
19406;SDS011;9839;53.364;-1.204;2023-03-16T15:40:00;4.47;;;1.50;;
19406;SDS011;9839;53.364;-1.204;2023-03-16T15:42:26;5.87;;;1.20;;
19406;SDS011;9839;53.364;-1.204;2023-03-16T15:44:51;6.23;;;1.60;;
19406;SDS011;9839;53.364;-1.204;2023-03-16T15:47:17;7.60;;;1.83;;
19406;SDS011;9839;53.364;-1.204;2023-03-16T15:49:42;5.73;;;1.67;;
19406;SDS011;9839;53.364;-1.204;2023-03-16T15:52:42;4.77;;;1.27;;
19406;SDS011;9839;53.364;-1.204;2023-03-16T15:55:00;2.93;;;1.40;;
19406;SDS011;9839;53.364;-1.204;2023-03-16T15:57:31;5.50;;;1.30;;
19406;SDS011;9839;53.364;-1.204;2023-03-16T15:59:57;3.33;;;1.00;;
19406;SDS011;9839;53.364;-1.204;2023-03-16T16:02:24;7.27;;;1.53;;
19406;SDS011;9839;53.364;-1.204;2023-03-16T16:04:52;2.90;;;1.60;;
19406;SDS011;9839;53.364;-1.204;2023-03-16T16:07:18;2.23;;;1.33;;
19406;SDS011;9839;53.364;-1.204;2023-03-16T16:09:43;6.40;;;1.83;;